createdAt,value
2018-10-16T00:00:52.898Z,100680.01
2018-10-16T00:03:22.877Z,100681.49
2018-10-16T00:05:52.850Z,100686.00
2018-10-16T00:08:22.792Z,100684.94
2018-10-16T00:10:52.763Z,100690.83
2018-10-16T00:13:22.744Z,100686.45
2018-10-16T00:15:52.780Z,100687.38
2018-10-16T00:18:22.767Z,100684.94
2018-10-16T00:20:52.698Z,100689.67
2018-10-16T00:23:22.715Z,100690.83
2018-10-16T00:25:52.664Z,100690.13
2018-10-16T00:28:22.625Z,100692.44
2018-10-16T00:30:52.619Z,100694.14
2018-10-16T00:33:22.604Z,100689.53
2018-10-16T00:35:52.590Z,100697.95
2018-10-16T00:38:22.522Z,100698.28
2018-10-16T00:40:52.451Z,100699.75
2018-10-16T00:43:22.409Z,100700.91
2018-10-16T00:45:52.339Z,100708.73
2018-10-16T00:48:22.347Z,100712.64
2018-10-16T00:50:52.332Z,100714.38
2018-10-16T00:53:22.262Z,100716.09
2018-10-16T00:55:52.210Z,100715.63
2018-10-16T00:58:22.147Z,100723.68
2018-10-16T01:00:52.116Z,100725.39
2018-10-16T01:03:22.121Z,100724.01
2018-10-16T01:05:52.078Z,100727.69
2018-10-16T01:08:21.988Z,100729.39
2018-10-16T01:10:51.932Z,100742.97
2018-10-16T01:13:21.912Z,100733.66
2018-10-16T01:15:51.870Z,100736.52
2018-10-16T01:18:21.830Z,100740.19
2018-10-16T01:20:51.828Z,100745.72
2018-10-16T01:23:21.781Z,100744.69
2018-10-16T01:25:51.751Z,100748.59
2018-10-16T01:28:21.723Z,100742.61
2018-10-16T01:30:51.652Z,100742.70
2018-10-16T01:33:21.623Z,100747.75
2018-10-16T01:35:51.615Z,100743.38
2018-10-16T01:38:21.528Z,100753.05
2018-10-16T01:40:51.499Z,100749.81
2018-10-16T01:43:21.539Z,100743.23
2018-10-16T01:45:51.506Z,100747.61
2018-10-16T01:48:21.444Z,100748.76
2018-10-16T01:50:51.403Z,100744.61
2018-10-16T01:53:21.420Z,100744.61
2018-10-16T01:55:51.371Z,100745.20
2018-10-16T01:58:21.360Z,100744.38
2018-10-16T02:00:51.327Z,100744.97
2018-10-16T02:03:21.299Z,100740.23
2018-10-16T02:05:51.240Z,100743.82
2018-10-16T02:08:21.155Z,100743.82
2018-10-16T02:10:51.184Z,100743.82
2018-10-16T02:13:21.979Z,100744.05
2018-10-16T02:15:51.942Z,100749.58
2018-10-16T02:18:21.920Z,100752.58
2018-10-16T02:20:51.860Z,100758.10
2018-10-16T02:23:21.798Z,100755.58
2018-10-16T02:25:51.789Z,100755.81
2018-10-16T02:28:21.687Z,100755.13
2018-10-16T02:30:51.658Z,100754.45
2018-10-16T02:33:21.654Z,100744.10
2018-10-16T02:35:51.558Z,100747.24
2018-10-16T02:38:21.540Z,100753.70
2018-10-16T02:40:51.551Z,100755.45
2018-10-16T02:43:21.612Z,100752.02
2018-10-16T02:45:51.616Z,100754.56
2018-10-16T02:48:21.594Z,100755.52
2018-10-16T02:50:51.606Z,100755.31
2018-10-16T02:53:21.568Z,100759.00
2018-10-16T02:55:51.542Z,100760.16
2018-10-16T02:58:21.579Z,100766.63
2018-10-16T03:00:51.512Z,100765.25
2018-10-16T03:03:21.474Z,100759.27
2018-10-16T03:05:51.453Z,100759.05
2018-10-16T03:08:21.440Z,100762.73
2018-10-16T03:10:51.360Z,100765.05
2018-10-16T03:13:21.257Z,100759.06
2018-10-16T03:15:51.230Z,100762.52
2018-10-16T03:18:21.184Z,100761.83
2018-10-16T03:20:51.104Z,100766.11
2018-10-16T03:23:21.073Z,100772.11
2018-10-16T03:25:51.008Z,100772.80
2018-10-16T03:28:20.951Z,100776.03
2018-10-16T03:30:50.965Z,100772.70
2018-10-16T03:33:20.967Z,100773.39
2018-10-16T03:35:50.912Z,100777.77
2018-10-16T03:38:20.889Z,100776.86
2018-10-16T03:40:50.810Z,100775.94
2018-10-16T03:43:21.833Z,100773.63
2018-10-16T03:45:51.812Z,100778.80
2018-10-16T03:48:21.805Z,100775.70
2018-10-16T03:50:51.755Z,100774.19
2018-10-16T03:53:21.716Z,100784.92
2018-10-16T03:55:51.545Z,100778.70
2018-10-16T03:58:21.544Z,100781.70
2018-10-16T04:00:51.507Z,100784.92
2018-10-16T04:03:21.487Z,100790.92
2018-10-16T04:05:51.453Z,100785.84
2018-10-16T04:08:21.392Z,100781.69
2018-10-16T04:10:51.288Z,100784.69
2018-10-16T04:13:21.240Z,100793.45
2018-10-16T04:15:51.226Z,100788.52
2018-10-16T04:18:21.159Z,100797.05
2018-10-16T04:20:51.160Z,100790.92
2018-10-16T04:23:21.125Z,100789.99
2018-10-16T04:25:51.035Z,100790.45
2018-10-16T04:28:21.014Z,100798.42
2018-10-16T04:30:51.004Z,100796.69
2018-10-16T04:33:20.953Z,100793.22
2018-10-16T04:35:50.938Z,100801.98
2018-10-16T04:38:20.905Z,100797.73
2018-10-16T04:40:50.870Z,100800.13
2018-10-16T04:43:20.990Z,100804.78
2018-10-16T04:45:51.022Z,100808.27
2018-10-16T04:48:21.013Z,100805.73
2018-10-16T04:50:51.016Z,100806.75
2018-10-16T04:53:21.078Z,100811.36
2018-10-16T04:55:51.117Z,100811.82
2018-10-16T04:58:21.079Z,100806.74
2018-10-16T05:00:51.011Z,100809.52
2018-10-16T05:03:21.002Z,100812.17
2018-10-16T05:05:50.959Z,100802.48
2018-10-16T05:08:20.899Z,100804.89
2018-10-16T05:10:50.882Z,100810.09
2018-10-16T05:13:20.904Z,100808.11
2018-10-16T05:15:50.724Z,100816.09
2018-10-16T05:18:20.677Z,100821.86
2018-10-16T05:20:50.626Z,100815.16
2018-10-16T05:23:20.592Z,100815.95
2018-10-16T05:25:50.606Z,100823.70
2018-10-16T05:28:20.548Z,100814.23
2018-10-16T05:30:50.593Z,100823.93
2018-10-16T05:33:20.534Z,100825.09
2018-10-16T05:35:50.477Z,100828.09
2018-10-16T05:38:20.479Z,100826.70
2018-10-16T05:40:50.437Z,100830.03
2018-10-16T05:43:20.407Z,100832.01
2018-10-16T05:45:50.339Z,100844.70
2018-10-16T05:48:20.335Z,100843.87
2018-10-16T05:50:50.275Z,100848.62
2018-10-16T05:53:20.316Z,100848.96
2018-10-16T05:56:06.431Z,100842.40
2018-10-16T05:58:36.635Z,100850.11
2018-10-16T06:01:06.936Z,100847.94
2018-10-16T06:03:36.914Z,100853.25
2018-10-16T06:06:07.076Z,100851.05
2018-10-16T06:08:37.027Z,100853.02
2018-10-16T06:11:07.209Z,100859.72
2018-10-16T06:13:37.144Z,100862.71
2018-10-16T06:16:07.327Z,100866.86
2018-10-16T06:18:37.222Z,100868.25
2018-10-16T06:21:07.342Z,100867.42
2018-10-16T06:23:37.337Z,100869.63
2018-10-16T06:26:07.593Z,100866.86
2018-10-16T06:28:37.569Z,100875.41
2018-10-16T06:31:07.577Z,100883.71
2018-10-16T06:33:38.122Z,100881.50
2018-10-16T06:36:08.059Z,100883.71
2018-10-16T06:38:38.054Z,100888.89
2018-10-16T06:41:08.163Z,100889.12
2018-10-16T06:43:38.589Z,100889.94
2018-10-16T06:46:08.517Z,100889.02
2018-10-16T06:48:38.744Z,100885.89
2018-10-16T06:51:08.372Z,100890.17
2018-10-16T06:53:38.334Z,100884.50
2018-10-16T06:56:08.464Z,100887.75
2018-10-16T06:58:38.427Z,100889.00
2018-10-16T07:01:08.339Z,100885.91
2018-10-16T07:03:38.289Z,100880.82
2018-10-16T07:06:08.220Z,100883.23
2018-10-16T07:08:38.149Z,100885.30
2018-10-16T07:11:08.044Z,100887.97
2018-10-16T07:13:38.042Z,100893.84
2018-10-16T07:16:08.198Z,100899.83
2018-10-16T07:18:38.209Z,100901.91
2018-10-16T07:21:08.205Z,100907.24
2018-10-16T07:23:38.597Z,100908.16
2018-10-16T07:26:09.100Z,100916.80
2018-10-16T07:28:39.262Z,100905.23
2018-10-16T07:31:09.192Z,100913.91
2018-10-16T07:33:39.212Z,100907.30
2018-10-16T07:36:09.160Z,100908.44
2018-10-16T07:38:39.220Z,100913.86
2018-10-16T07:41:09.250Z,100908.52
2018-10-16T07:43:39.235Z,100911.72
2018-10-16T07:46:09.235Z,100921.92
2018-10-16T07:48:39.256Z,100917.27
2018-10-16T07:51:09.176Z,100916.30
2018-10-16T07:53:39.123Z,100919.95
2018-10-16T07:56:09.062Z,100917.03
2018-10-16T07:58:39.006Z,100913.73
2018-10-16T08:01:09.007Z,100917.38
2018-10-16T08:03:38.935Z,100913.84
2018-10-16T08:06:08.885Z,100916.69
2018-10-16T08:08:38.844Z,100908.53
2018-10-16T08:11:08.833Z,100909.16
2018-10-16T08:13:38.775Z,100905.05
2018-10-16T08:16:09.653Z,100908.09
2018-10-16T08:18:39.642Z,100905.81
2018-10-16T08:21:09.644Z,100904.91
2018-10-16T08:23:39.687Z,100909.41
2018-10-16T08:26:09.599Z,100910.88
2018-10-16T08:28:39.573Z,100910.06
2018-10-16T08:31:09.516Z,100913.93
2018-10-16T08:33:39.656Z,100916.69
2018-10-16T08:36:09.659Z,100910.23
2018-10-16T08:39:43.590Z,100913.76
2018-10-16T08:42:29.134Z,100912.77
2018-10-16T08:45:24.102Z,100918.59
2018-10-16T08:48:10.397Z,100915.13
2018-10-16T08:50:56.657Z,100913.03
2018-10-16T08:53:26.566Z,100911.52
2018-10-16T08:55:56.525Z,100904.77
2018-10-16T08:58:26.511Z,100906.22
2018-10-16T09:00:56.458Z,100904.05
2018-10-16T09:03:26.344Z,100907.25
2018-10-16T09:05:56.279Z,100906.52
2018-10-16T09:08:26.239Z,100905.72
2018-10-16T09:10:56.198Z,100910.50
2018-10-16T09:13:26.166Z,100911.08
2018-10-16T09:15:56.180Z,100913.28
2018-10-16T09:18:26.207Z,100905.06
2018-10-16T09:20:56.700Z,100908.60
2018-10-16T09:23:26.561Z,100906.09
2018-10-16T09:25:56.629Z,100905.61
2018-10-16T09:28:26.743Z,100910.70
2018-10-16T09:30:56.823Z,100904.75
2018-10-16T09:33:26.794Z,100908.83
2018-10-16T09:35:56.755Z,100909.73
2018-10-16T09:38:26.756Z,100906.02
2018-10-16T09:40:56.708Z,100906.09
2018-10-16T09:43:26.648Z,100905.77
2018-10-16T09:45:56.603Z,100901.42
2018-10-16T09:48:26.498Z,100902.47
2018-10-16T09:50:56.487Z,100902.55
2018-10-16T09:53:26.715Z,100903.41
2018-10-16T09:55:56.685Z,100900.44
2018-10-16T09:58:26.664Z,100902.88
2018-10-16T10:01:01.531Z,100898.90
2018-10-16T10:03:31.491Z,100906.55
2018-10-16T10:06:01.437Z,100905.74
2018-10-16T10:08:31.385Z,100901.17
2018-10-16T10:11:01.433Z,100893.16
2018-10-16T10:13:31.260Z,100901.17
2018-10-16T10:16:01.231Z,100898.36
2018-10-16T10:18:31.205Z,100904.95
2018-10-16T10:21:01.184Z,100902.53
2018-10-16T10:23:31.173Z,100906.11
2018-10-16T10:26:01.065Z,100892.47
2018-10-16T10:28:31.066Z,100897.05
2018-10-16T10:31:01.059Z,100894.64
2018-10-16T10:33:31.059Z,100893.80
2018-10-16T10:36:01.085Z,100892.75
2018-10-16T10:38:31.070Z,100885.48
2018-10-16T10:41:01.125Z,100889.44
2018-10-16T10:43:31.092Z,100893.63
2018-10-16T10:46:01.042Z,100888.35
2018-10-16T10:48:30.993Z,100886.50
2018-10-16T10:51:01.128Z,100889.84
2018-10-16T10:53:30.873Z,100883.15
2018-10-16T10:56:00.828Z,100889.11
2018-10-16T10:58:30.789Z,100884.63
2018-10-16T11:01:00.758Z,100881.34
2018-10-16T11:03:30.820Z,100880.09
2018-10-16T11:06:00.684Z,100883.03
2018-10-16T11:08:30.663Z,100869.53
2018-10-16T11:11:00.683Z,100876.23
2018-10-16T11:13:30.667Z,100878.14
2018-10-16T11:16:00.632Z,100868.20
2018-10-16T11:18:30.679Z,100869.95
2018-10-16T11:21:00.663Z,100872.88
2018-10-16T11:23:30.642Z,100878.02
2018-10-16T11:26:00.623Z,100871.70
2018-10-16T11:28:30.638Z,100867.57
2018-10-16T11:31:00.587Z,100868.89
2018-10-16T11:33:30.550Z,100863.16
2018-10-16T11:36:00.445Z,100853.10
2018-10-16T11:38:30.381Z,100867.41
2018-10-16T11:41:00.315Z,100866.09
2018-10-16T11:43:30.325Z,100864.39
2018-10-16T11:46:00.202Z,100865.13
2018-10-16T11:48:30.171Z,100863.61
2018-10-16T11:51:00.178Z,100864.47
2018-10-16T11:53:30.099Z,100861.53
2018-10-16T11:56:00.115Z,100864.27
2018-10-16T11:58:30.019Z,100857.10
2018-10-16T12:00:59.970Z,100862.86
2018-10-16T12:03:29.963Z,100856.50
2018-10-16T12:06:00.077Z,100854.18
2018-10-16T12:08:29.974Z,100852.05
2018-10-16T12:10:59.955Z,100853.41
2018-10-16T12:13:29.959Z,100850.95
2018-10-16T12:16:00.060Z,100850.33
2018-10-16T12:18:35.319Z,100851.13
2018-10-16T12:21:08.119Z,100846.27
2018-10-16T12:23:38.087Z,100848.23
2018-10-16T12:26:07.998Z,100844.26
2018-10-16T12:28:37.992Z,100846.53
2018-10-16T12:31:08.085Z,100843.94
2018-10-16T12:33:38.132Z,100842.16
2018-10-16T12:36:08.220Z,100841.39
2018-10-16T12:38:38.187Z,100838.65
2018-10-16T12:41:08.142Z,100839.25
2018-10-16T12:43:38.253Z,100832.00
2018-10-16T12:46:08.099Z,100833.78
2018-10-16T12:48:38.026Z,100841.77
2018-10-16T12:51:08.071Z,100838.92
2018-10-16T12:53:38.044Z,100842.03
2018-10-16T12:56:08.383Z,100836.08
2018-10-16T12:58:38.282Z,100840.02
2018-10-16T13:01:08.264Z,100834.66
2018-10-16T13:03:38.212Z,100842.03
2018-10-16T13:06:08.138Z,100833.66
2018-10-16T13:08:38.140Z,100842.68
2018-10-16T13:11:08.133Z,100842.17
2018-10-16T13:13:38.037Z,100836.05
2018-10-16T13:16:08.074Z,100838.80
2018-10-16T13:18:37.950Z,100836.70
2018-10-16T13:21:07.993Z,100831.95
2018-10-16T13:23:37.993Z,100836.77
2018-10-16T13:26:07.988Z,100822.56
2018-10-16T13:28:37.919Z,100825.48
2018-10-16T13:31:07.902Z,100831.08
2018-10-16T13:33:37.868Z,100832.62
2018-10-16T13:36:07.966Z,100836.16
2018-10-16T13:38:37.945Z,100827.86
2018-10-16T13:41:07.939Z,100822.75
2018-10-16T13:43:37.924Z,100823.28
2018-10-16T13:46:08.013Z,100825.06
2018-10-16T13:48:37.945Z,100821.17
2018-10-16T13:51:07.892Z,100820.55
2018-10-16T13:53:37.877Z,100822.23
2018-10-16T13:56:08.354Z,100824.34
2018-10-16T13:58:38.304Z,100823.44
2018-10-16T14:01:08.268Z,100828.20
2018-10-16T14:03:38.220Z,100823.20
2018-10-16T14:06:08.194Z,100823.30
2018-10-16T14:08:38.171Z,100820.11
2018-10-16T14:11:08.172Z,100816.73
2018-10-16T14:13:38.114Z,100821.76
2018-10-16T14:16:08.110Z,100814.69
2018-10-16T14:18:38.087Z,100819.56
2018-10-16T14:21:08.017Z,100819.56
2018-10-16T14:23:37.990Z,100821.16
2018-10-16T14:26:07.989Z,100820.52
2018-10-16T14:28:37.919Z,100819.74
2018-10-16T14:31:07.868Z,100817.70
2018-10-16T14:33:37.859Z,100814.96
2018-10-16T14:36:07.799Z,100819.98
2018-10-16T14:38:37.759Z,100818.45
2018-10-16T14:41:07.723Z,100818.77
2018-10-16T14:43:37.698Z,100823.16
2018-10-16T14:46:07.811Z,100823.59
2018-10-16T14:48:37.698Z,100821.03
2018-10-16T14:51:07.649Z,100820.48
2018-10-16T14:53:37.685Z,100819.12
2018-10-16T14:56:07.747Z,100821.64
2018-10-16T14:58:37.705Z,100823.70
2018-10-16T15:01:07.765Z,100816.13
2018-10-16T15:03:37.713Z,100819.55
2018-10-16T15:06:07.720Z,100815.16
2018-10-16T15:08:37.658Z,100815.20
2018-10-16T15:11:07.643Z,100816.64
2018-10-16T15:13:37.622Z,100819.89
2018-10-16T15:16:08.142Z,100821.89
2018-10-16T15:18:38.090Z,100816.25
2018-10-16T15:21:08.167Z,100829.08
2018-10-16T15:23:38.265Z,100815.56
2018-10-16T15:26:08.245Z,100824.14
2018-10-16T15:28:38.159Z,100817.27
2018-10-16T15:31:08.171Z,100818.75
2018-10-16T15:33:38.165Z,100817.45
2018-10-16T15:36:08.176Z,100817.92
2018-10-16T15:38:38.159Z,100821.01
2018-10-16T15:41:08.706Z,100821.04
2018-10-16T15:43:38.655Z,100812.87
2018-10-16T15:46:08.728Z,100811.91
2018-10-16T15:48:38.636Z,100815.55
2018-10-16T15:51:08.667Z,100820.36
2018-10-16T15:53:38.631Z,100831.41
2018-10-16T15:56:08.672Z,100831.44
2018-10-16T15:58:38.618Z,100823.78
2018-10-16T16:01:08.617Z,100829.81
2018-10-16T16:03:38.550Z,100822.80
2018-10-16T16:06:08.570Z,100827.80
2018-10-16T16:08:39.377Z,100826.98
2018-10-16T16:11:09.378Z,100826.40
2018-10-16T16:13:39.329Z,100825.58
2018-10-16T16:16:09.333Z,100818.56
2018-10-16T16:18:39.326Z,100833.97
2018-10-16T16:21:09.316Z,100834.16
2018-10-16T16:23:39.424Z,100832.55
2018-10-16T16:26:09.419Z,100834.69
2018-10-16T16:28:39.408Z,100834.06
2018-10-16T16:31:09.393Z,100835.44
2018-10-16T16:33:39.398Z,100841.23
2018-10-16T16:36:09.478Z,100844.01
2018-10-16T16:38:39.444Z,100843.57
2018-10-16T16:41:09.525Z,100848.36
2018-10-16T16:43:39.517Z,100848.13
2018-10-16T16:46:09.667Z,100851.09
2018-10-16T16:48:39.499Z,100849.63
2018-10-16T16:51:09.462Z,100849.59
2018-10-16T16:53:39.467Z,100859.73
2018-10-16T16:56:09.521Z,100860.88
2018-10-16T16:58:39.467Z,100860.02
2018-10-16T17:01:09.501Z,100866.97
2018-10-16T17:03:39.481Z,100868.11
2018-10-16T17:06:09.516Z,100866.25
2018-10-16T17:08:39.479Z,100869.58
2018-10-16T17:11:09.467Z,100872.11
2018-10-16T17:13:39.438Z,100878.20
2018-10-16T17:16:09.505Z,100876.91
2018-10-16T17:18:39.464Z,100880.58
2018-10-16T17:21:09.504Z,100877.72
2018-10-16T17:23:39.479Z,100879.42
2018-10-16T17:26:09.771Z,100883.14
2018-10-16T17:28:39.566Z,100884.67
2018-10-16T17:31:09.535Z,100886.81
2018-10-16T17:33:39.460Z,100894.30
2018-10-16T17:36:09.416Z,100885.02
2018-10-16T17:38:39.330Z,100897.14
2018-10-16T17:41:09.302Z,100890.28
2018-10-16T17:43:39.905Z,100891.59
2018-10-16T17:46:09.878Z,100889.72
2018-10-16T17:48:39.814Z,100886.44
2018-10-16T17:51:09.873Z,100890.72
2018-10-16T17:53:39.817Z,100890.47
2018-10-16T17:56:10.167Z,100892.98
2018-10-16T17:58:40.146Z,100894.35
2018-10-16T18:01:10.154Z,100890.68
2018-10-16T18:03:40.130Z,100900.41
2018-10-16T18:06:10.202Z,100908.14
2018-10-16T18:08:40.327Z,100909.25
2018-10-16T18:11:10.342Z,100910.83
2018-10-16T18:13:40.223Z,100904.82
2018-10-16T18:16:10.197Z,100910.19
2018-10-16T18:18:40.209Z,100920.16
2018-10-16T18:21:10.258Z,100910.61
2018-10-16T18:23:40.231Z,100914.41
2018-10-16T18:26:10.192Z,100915.80
2018-10-16T18:28:40.206Z,100915.80
2018-10-16T18:31:10.197Z,100918.80
2018-10-16T18:33:40.207Z,100919.20
2018-10-16T18:36:10.228Z,100921.17
2018-10-16T18:38:40.989Z,100923.17
2018-10-16T18:41:10.882Z,100918.55
2018-10-16T18:43:40.849Z,100919.52
2018-10-16T18:46:11.015Z,100917.09
2018-10-16T18:48:41.056Z,100910.88
2018-10-16T18:51:11.167Z,100925.20
2018-10-16T18:53:41.040Z,100923.14
2018-10-16T18:56:11.045Z,100919.70
2018-10-16T18:58:40.991Z,100924.64
2018-10-16T19:01:10.968Z,100921.42
2018-10-16T19:03:41.021Z,100923.56
2018-10-16T19:06:11.515Z,100919.91
2018-10-16T19:08:41.497Z,100920.88
2018-10-16T19:11:11.506Z,100928.59
2018-10-16T19:13:41.640Z,100930.73
2018-10-16T19:16:11.690Z,100922.33
2018-10-16T19:18:41.716Z,100932.45
2018-10-16T19:21:11.841Z,100930.41
2018-10-16T19:23:41.797Z,100932.77
2018-10-16T19:26:11.841Z,100930.50
2018-10-16T19:28:41.855Z,100932.64
2018-10-16T19:31:11.889Z,100937.78
2018-10-16T19:33:41.800Z,100942.68
2018-10-16T19:36:11.850Z,100939.45
2018-10-16T19:38:41.954Z,100939.03
2018-10-16T19:41:11.938Z,100937.20
2018-10-16T19:43:42.033Z,100943.73
2018-10-16T19:46:11.978Z,100944.91
2018-10-16T19:48:41.999Z,100945.62
2018-10-16T19:51:12.117Z,100943.80
2018-10-16T19:53:42.073Z,100946.36
2018-10-16T19:56:12.036Z,100948.71
2018-10-16T19:58:42.043Z,100947.10
2018-10-16T20:01:12.000Z,100943.09
2018-10-16T20:03:42.006Z,100951.80
2018-10-16T20:06:12.003Z,100955.33
2018-10-16T20:08:41.992Z,100960.11
2018-10-16T20:11:12.000Z,100950.50
2018-10-16T20:13:42.028Z,100960.85
2018-10-16T20:16:12.037Z,100964.81
2018-10-16T20:18:42.339Z,100957.98
2018-10-16T20:21:12.315Z,100970.52
2018-10-16T20:23:42.320Z,100966.73
2018-10-16T20:26:12.346Z,100973.47
2018-10-16T20:28:42.476Z,100975.00
2018-10-16T20:31:12.618Z,100970.16
2018-10-16T20:33:42.484Z,100971.34
2018-10-16T20:36:12.488Z,100973.69
2018-10-16T20:38:42.495Z,100970.02
2018-10-16T20:41:12.492Z,100966.37
2018-10-16T20:43:42.580Z,100962.32
2018-10-16T20:46:12.890Z,100970.41
2018-10-16T20:48:42.870Z,100967.91
2018-10-16T20:51:12.861Z,100968.43
2018-10-16T20:53:42.804Z,100969.86
2018-10-16T20:56:12.770Z,100964.81
2018-10-16T20:58:42.763Z,100975.66
2018-10-16T21:01:14.120Z,100983.70
2018-10-16T21:03:44.620Z,100975.17
2018-10-16T21:06:14.679Z,100975.45
2018-10-16T21:08:44.544Z,100979.92
2018-10-16T21:11:14.540Z,100973.81
2018-10-16T21:13:44.451Z,100965.81
2018-10-16T21:16:14.423Z,100972.20
2018-10-16T21:18:44.493Z,100976.88
2018-10-16T21:21:14.456Z,100968.79
2018-10-16T21:23:44.432Z,100969.29
2018-10-16T21:26:14.433Z,100968.40
2018-10-16T21:28:44.390Z,100968.91
2018-10-16T21:31:14.487Z,100973.35
2018-10-16T21:33:44.322Z,100969.11
2018-10-16T21:36:14.315Z,100965.44
2018-10-16T21:38:44.320Z,100964.52
2018-10-16T21:41:14.415Z,100964.45
2018-10-16T21:43:44.296Z,100961.00
2018-10-16T21:46:14.197Z,100956.16
2018-10-16T21:48:44.129Z,100959.06
2018-10-16T21:51:14.453Z,100945.89
2018-10-16T21:53:44.486Z,100952.39
2018-10-16T21:56:14.519Z,100956.71
2018-10-16T21:58:44.496Z,100951.27
2018-10-16T22:01:14.520Z,100960.33
2018-10-16T22:03:44.427Z,100957.67
2018-10-16T22:06:14.401Z,100961.39
2018-10-16T22:08:44.387Z,100955.98
2018-10-16T22:11:14.467Z,100957.27
2018-10-16T22:13:44.395Z,100954.23
2018-10-16T22:16:14.280Z,100950.56
2018-10-16T22:18:44.217Z,100951.50
2018-10-16T22:21:14.172Z,100951.65
2018-10-16T22:23:44.116Z,100955.37
2018-10-16T22:26:14.020Z,100952.48
2018-10-16T22:28:43.957Z,100949.25
2018-10-16T22:31:14.012Z,100951.36
2018-10-16T22:33:43.946Z,100952.64
2018-10-16T22:36:13.904Z,100949.19
2018-10-16T22:38:43.830Z,100945.17
2018-10-16T22:41:13.887Z,100950.62
2018-10-16T22:43:43.827Z,100947.77
2018-10-16T22:46:13.751Z,100943.71
2018-10-16T22:48:43.735Z,100951.37
2018-10-16T22:51:13.715Z,100938.80
2018-10-16T22:53:43.670Z,100936.70
2018-10-16T22:56:13.616Z,100939.39
2018-10-16T22:58:43.589Z,100935.34
2018-10-16T23:01:13.577Z,100928.33
2018-10-16T23:03:43.466Z,100931.44
2018-10-16T23:06:13.423Z,100934.36
2018-10-16T23:08:43.379Z,100928.92
2018-10-16T23:11:13.447Z,100926.86
2018-10-16T23:13:43.291Z,100927.08
2018-10-16T23:16:13.224Z,100927.45
2018-10-16T23:18:43.204Z,100930.00
2018-10-16T23:21:13.187Z,100921.08
2018-10-16T23:23:43.075Z,100930.80
2018-10-16T23:26:13.032Z,100924.45
2018-10-16T23:28:42.945Z,100925.23
2018-10-16T23:31:12.918Z,100929.63
2018-10-16T23:33:42.861Z,100926.06
2018-10-16T23:36:12.804Z,100929.41
2018-10-16T23:38:42.721Z,100927.80
2018-10-16T23:41:12.801Z,100930.56
2018-10-16T23:43:42.731Z,100929.55
2018-10-16T23:46:12.610Z,100931.27
2018-10-16T23:48:42.602Z,100930.26
2018-10-16T23:51:12.595Z,100932.55
2018-10-16T23:53:42.492Z,100924.14
2018-10-16T23:56:12.433Z,100929.47
2018-10-16T23:58:42.423Z,100927.03
